sensor_id;sensor_type;location;lat;lon;timestamp;P1;durP1;ratioP1;P2;durP2;ratioP2
1328;SDS011;658;48.820;9.354;2022-11-14T00:02:02;7.73;;;7.20;;
1328;SDS011;658;48.820;9.354;2022-11-14T00:06:04;7.97;;;7.30;;
1328;SDS011;658;48.820;9.354;2022-11-14T00:10:06;7.60;;;7.03;;
1328;SDS011;658;48.820;9.354;2022-11-14T00:14:08;7.90;;;7.30;;
1328;SDS011;658;48.820;9.354;2022-11-14T00:18:09;8.50;;;7.90;;
1328;SDS011;658;48.820;9.354;2022-11-14T00:22:09;7.83;;;7.23;;
1328;SDS011;658;48.820;9.354;2022-11-14T00:26:10;8.03;;;7.43;;
1328;SDS011;658;48.820;9.354;2022-11-14T00:30:10;7.70;;;7.20;;
1328;SDS011;658;48.820;9.354;2022-11-14T00:34:11;7.87;;;7.27;;
1328;SDS011;658;48.820;9.354;2022-11-14T00:38:12;7.17;;;6.67;;
1328;SDS011;658;48.820;9.354;2022-11-14T00:42:13;7.33;;;6.83;;
1328;SDS011;658;48.820;9.354;2022-11-14T00:46:14;7.97;;;7.37;;
1328;SDS011;658;48.820;9.354;2022-11-14T00:50:15;7.40;;;6.90;;
1328;SDS011;658;48.820;9.354;2022-11-14T00:54:16;7.23;;;6.73;;
1328;SDS011;658;48.820;9.354;2022-11-14T00:58:16;7.60;;;7.10;;
1328;SDS011;658;48.820;9.354;2022-11-14T01:02:17;8.07;;;7.47;;
1328;SDS011;658;48.820;9.354;2022-11-14T01:06:18;7.90;;;7.40;;
1328;SDS011;658;48.820;9.354;2022-11-14T01:10:19;8.20;;;7.50;;
1328;SDS011;658;48.820;9.354;2022-11-14T01:14:21;7.60;;;7.00;;
1328;SDS011;658;48.820;9.354;2022-11-14T01:18:21;7.97;;;7.37;;
1328;SDS011;658;48.820;9.354;2022-11-14T01:22:22;8.27;;;7.73;;
1328;SDS011;658;48.820;9.354;2022-11-14T01:26:23;8.00;;;7.40;;
1328;SDS011;658;48.820;9.354;2022-11-14T01:30:23;6.97;;;6.50;;
1328;SDS011;658;48.820;9.354;2022-11-14T01:34:24;8.40;;;7.80;;
1328;SDS011;658;48.820;9.354;2022-11-14T01:38:25;8.00;;;7.40;;
1328;SDS011;658;48.820;9.354;2022-11-14T01:42:26;7.90;;;7.30;;
1328;SDS011;658;48.820;9.354;2022-11-14T01:50:29;7.73;;;7.13;;
1328;SDS011;658;48.820;9.354;2022-11-14T01:54:31;7.80;;;7.30;;
1328;SDS011;658;48.820;9.354;2022-11-14T01:58:43;7.97;;;7.37;;
1328;SDS011;658;48.820;9.354;2022-11-14T02:02:47;7.80;;;7.27;;
1328;SDS011;658;48.820;9.354;2022-11-14T02:06:49;8.67;;;8.00;;
1328;SDS011;658;48.820;9.354;2022-11-14T02:10:53;7.63;;;7.13;;
1328;SDS011;658;48.820;9.354;2022-11-14T02:14:54;6.87;;;6.43;;
1328;SDS011;658;48.820;9.354;2022-11-14T02:18:56;8.37;;;7.77;;
1328;SDS011;658;48.820;9.354;2022-11-14T02:22:57;6.90;;;6.40;;
1328;SDS011;658;48.820;9.354;2022-11-14T02:26:58;7.67;;;7.13;;
1328;SDS011;658;48.820;9.354;2022-11-14T02:30:58;7.50;;;7.00;;
1328;SDS011;658;48.820;9.354;2022-11-14T02:34:59;7.77;;;7.20;;
1328;SDS011;658;48.820;9.354;2022-11-14T02:38:59;8.10;;;7.50;;
1328;SDS011;658;48.820;9.354;2022-11-14T02:43:00;7.40;;;6.90;;
1328;SDS011;658;48.820;9.354;2022-11-14T02:47:00;7.27;;;6.77;;
1328;SDS011;658;48.820;9.354;2022-11-14T02:51:01;7.43;;;6.83;;
1328;SDS011;658;48.820;9.354;2022-11-14T02:55:03;7.50;;;7.00;;
1328;SDS011;658;48.820;9.354;2022-11-14T02:59:04;6.67;;;6.27;;
1328;SDS011;658;48.820;9.354;2022-11-14T03:03:04;7.50;;;6.90;;
1328;SDS011;658;48.820;9.354;2022-11-14T03:07:05;6.53;;;6.13;;
1328;SDS011;658;48.820;9.354;2022-11-14T03:11:06;7.20;;;6.57;;
1328;SDS011;658;48.820;9.354;2022-11-14T03:15:08;7.20;;;6.70;;
1328;SDS011;658;48.820;9.354;2022-11-14T03:19:09;6.97;;;6.47;;
1328;SDS011;658;48.820;9.354;2022-11-14T03:23:09;7.50;;;7.00;;
1328;SDS011;658;48.820;9.354;2022-11-14T03:27:10;7.17;;;6.67;;
1328;SDS011;658;48.820;9.354;2022-11-14T03:31:11;7.03;;;6.53;;
1328;SDS011;658;48.820;9.354;2022-11-14T03:35:12;7.33;;;6.77;;
1328;SDS011;658;48.820;9.354;2022-11-14T03:39:13;6.23;;;5.83;;
1328;SDS011;658;48.820;9.354;2022-11-14T03:43:14;6.63;;;6.10;;
1328;SDS011;658;48.820;9.354;2022-11-14T03:47:15;7.00;;;6.50;;
1328;SDS011;658;48.820;9.354;2022-11-14T03:51:16;6.97;;;6.47;;
1328;SDS011;658;48.820;9.354;2022-11-14T03:55:16;7.73;;;7.13;;
1328;SDS011;658;48.820;9.354;2022-11-14T03:59:17;6.43;;;6.03;;
1328;SDS011;658;48.820;9.354;2022-11-14T04:03:17;6.87;;;6.47;;
1328;SDS011;658;48.820;9.354;2022-11-14T04:07:18;7.00;;;6.50;;
1328;SDS011;658;48.820;9.354;2022-11-14T04:11:19;6.93;;;6.43;;
1328;SDS011;658;48.820;9.354;2022-11-14T04:15:19;7.87;;;7.27;;
1328;SDS011;658;48.820;9.354;2022-11-14T04:19:20;6.47;;;6.07;;
1328;SDS011;658;48.820;9.354;2022-11-14T04:23:20;6.50;;;6.10;;
1328;SDS011;658;48.820;9.354;2022-11-14T04:27:21;6.53;;;6.03;;
1328;SDS011;658;48.820;9.354;2022-11-14T04:31:22;7.10;;;6.60;;
1328;SDS011;658;48.820;9.354;2022-11-14T04:35:22;6.40;;;5.90;;
1328;SDS011;658;48.820;9.354;2022-11-14T04:39:23;6.53;;;6.13;;
1328;SDS011;658;48.820;9.354;2022-11-14T04:43:23;6.10;;;5.70;;
1328;SDS011;658;48.820;9.354;2022-11-14T04:47:24;6.07;;;5.67;;
1328;SDS011;658;48.820;9.354;2022-11-14T04:51:25;6.50;;;6.10;;
1328;SDS011;658;48.820;9.354;2022-11-14T04:55:25;6.77;;;6.27;;
1328;SDS011;658;48.820;9.354;2022-11-14T04:59:26;6.90;;;6.43;;
1328;SDS011;658;48.820;9.354;2022-11-14T05:03:26;6.40;;;6.00;;
1328;SDS011;658;48.820;9.354;2022-11-14T05:07:28;6.40;;;6.00;;
1328;SDS011;658;48.820;9.354;2022-11-14T05:11:28;6.30;;;5.80;;
1328;SDS011;658;48.820;9.354;2022-11-14T05:15:29;6.53;;;6.13;;
1328;SDS011;658;48.820;9.354;2022-11-14T05:19:29;6.50;;;6.00;;
1328;SDS011;658;48.820;9.354;2022-11-14T05:23:30;6.33;;;5.90;;
1328;SDS011;658;48.820;9.354;2022-11-14T05:27:31;6.20;;;5.80;;
1328;SDS011;658;48.820;9.354;2022-11-14T05:31:32;7.10;;;6.53;;
1328;SDS011;658;48.820;9.354;2022-11-14T05:35:32;7.10;;;6.50;;
1328;SDS011;658;48.820;9.354;2022-11-14T05:39:33;6.50;;;6.00;;
1328;SDS011;658;48.820;9.354;2022-11-14T05:43:33;6.30;;;5.80;;
1328;SDS011;658;48.820;9.354;2022-11-14T05:47:34;6.70;;;6.20;;
1328;SDS011;658;48.820;9.354;2022-11-14T05:51:35;8.50;;;6.23;;
1328;SDS011;658;48.820;9.354;2022-11-14T05:55:35;8.90;;;6.00;;
1328;SDS011;658;48.820;9.354;2022-11-14T05:59:36;8.47;;;6.43;;
1328;SDS011;658;48.820;9.354;2022-11-14T06:03:38;8.40;;;6.23;;
1328;SDS011;658;48.820;9.354;2022-11-14T06:07:43;7.60;;;7.00;;
1328;SDS011;658;48.820;9.354;2022-11-14T06:11:43;8.70;;;7.00;;
1328;SDS011;658;48.820;9.354;2022-11-14T06:15:44;9.20;;;6.53;;
1328;SDS011;658;48.820;9.354;2022-11-14T06:19:44;13.50;;;12.33;;
1328;SDS011;658;48.820;9.354;2022-11-14T06:23:45;8.67;;;7.87;;
1328;SDS011;658;48.820;9.354;2022-11-14T06:27:46;7.77;;;7.17;;
1328;SDS011;658;48.820;9.354;2022-11-14T06:31:47;7.57;;;6.87;;
1328;SDS011;658;48.820;9.354;2022-11-14T06:35:48;7.20;;;6.50;;
1328;SDS011;658;48.820;9.354;2022-11-14T06:39:48;7.30;;;6.60;;
1328;SDS011;658;48.820;9.354;2022-11-14T06:43:51;7.20;;;6.10;;
1328;SDS011;658;48.820;9.354;2022-11-14T06:47:56;6.93;;;5.93;;
1328;SDS011;658;48.820;9.354;2022-11-14T06:51:58;6.23;;;5.83;;
1328;SDS011;658;48.820;9.354;2022-11-14T06:56:11;6.77;;;6.07;;
1328;SDS011;658;48.820;9.354;2022-11-14T07:00:14;7.43;;;5.90;;
1328;SDS011;658;48.820;9.354;2022-11-14T07:04:14;6.63;;;6.00;;
1328;SDS011;658;48.820;9.354;2022-11-14T07:08:15;10.00;;;8.40;;
1328;SDS011;658;48.820;9.354;2022-11-14T07:12:16;8.07;;;7.30;;
1328;SDS011;658;48.820;9.354;2022-11-14T07:16:16;6.70;;;6.10;;
1328;SDS011;658;48.820;9.354;2022-11-14T07:20:17;9.33;;;6.43;;
1328;SDS011;658;48.820;9.354;2022-11-14T07:24:18;6.20;;;5.70;;
1328;SDS011;658;48.820;9.354;2022-11-14T07:28:19;6.60;;;6.10;;
1328;SDS011;658;48.820;9.354;2022-11-14T07:32:19;6.47;;;5.97;;
1328;SDS011;658;48.820;9.354;2022-11-14T07:36:20;6.00;;;5.60;;
1328;SDS011;658;48.820;9.354;2022-11-14T07:40:20;5.90;;;5.40;;
1328;SDS011;658;48.820;9.354;2022-11-14T07:44:21;5.60;;;5.20;;
1328;SDS011;658;48.820;9.354;2022-11-14T07:48:22;5.80;;;5.33;;
1328;SDS011;658;48.820;9.354;2022-11-14T07:52:22;5.10;;;4.70;;
1328;SDS011;658;48.820;9.354;2022-11-14T07:56:23;7.73;;;5.10;;
1328;SDS011;658;48.820;9.354;2022-11-14T08:00:25;5.47;;;5.07;;
1328;SDS011;658;48.820;9.354;2022-11-14T08:04:26;6.30;;;5.80;;
1328;SDS011;658;48.820;9.354;2022-11-14T08:08:26;5.60;;;5.10;;
1328;SDS011;658;48.820;9.354;2022-11-14T08:12:27;5.70;;;5.23;;
1328;SDS011;658;48.820;9.354;2022-11-14T08:16:27;5.60;;;5.13;;
1328;SDS011;658;48.820;9.354;2022-11-14T08:20:28;5.10;;;4.73;;
1328;SDS011;658;48.820;9.354;2022-11-14T08:24:29;5.40;;;5.00;;
1328;SDS011;658;48.820;9.354;2022-11-14T08:28:29;5.30;;;4.90;;
1328;SDS011;658;48.820;9.354;2022-11-14T08:32:30;5.57;;;5.17;;
1328;SDS011;658;48.820;9.354;2022-11-14T08:36:31;5.00;;;4.70;;
1328;SDS011;658;48.820;9.354;2022-11-14T08:40:31;5.80;;;5.23;;
1328;SDS011;658;48.820;9.354;2022-11-14T08:44:32;5.03;;;4.63;;
1328;SDS011;658;48.820;9.354;2022-11-14T08:48:32;10.30;;;7.50;;
1328;SDS011;658;48.820;9.354;2022-11-14T08:52:33;8.00;;;6.30;;
1328;SDS011;658;48.820;9.354;2022-11-14T08:56:34;6.77;;;6.10;;
1328;SDS011;658;48.820;9.354;2022-11-14T09:00:34;6.30;;;5.80;;
1328;SDS011;658;48.820;9.354;2022-11-14T09:04:35;6.83;;;6.13;;
1328;SDS011;658;48.820;9.354;2022-11-14T09:08:36;5.87;;;5.20;;
1328;SDS011;658;48.820;9.354;2022-11-14T09:12:37;5.73;;;5.17;;
1328;SDS011;658;48.820;9.354;2022-11-14T09:16:37;7.57;;;5.80;;
1328;SDS011;658;48.820;9.354;2022-11-14T09:20:39;6.60;;;5.20;;
1328;SDS011;658;48.820;9.354;2022-11-14T09:24:40;5.53;;;5.00;;
1328;SDS011;658;48.820;9.354;2022-11-14T09:28:41;5.97;;;5.20;;
1328;SDS011;658;48.820;9.354;2022-11-14T09:32:41;5.20;;;4.70;;
1328;SDS011;658;48.820;9.354;2022-11-14T09:36:42;5.43;;;4.70;;
1328;SDS011;658;48.820;9.354;2022-11-14T09:44:59;5.20;;;4.70;;
1328;SDS011;658;48.820;9.354;2022-11-14T09:49:02;5.40;;;4.90;;
1328;SDS011;658;48.820;9.354;2022-11-14T09:53:09;5.90;;;5.30;;
1328;SDS011;658;48.820;9.354;2022-11-14T09:57:19;6.60;;;4.47;;
1328;SDS011;658;48.820;9.354;2022-11-14T10:10:25;5.30;;;4.80;;
1328;SDS011;658;48.820;9.354;2022-11-14T10:14:53;4.67;;;4.37;;
1328;SDS011;658;48.820;9.354;2022-11-14T10:27:42;6.07;;;3.70;;
1328;SDS011;658;48.820;9.354;2022-11-14T10:44:54;4.80;;;4.50;;
1328;SDS011;658;48.820;9.354;2022-11-14T10:49:21;4.93;;;4.43;;
1328;SDS011;658;48.820;9.354;2022-11-14T10:57:33;4.20;;;3.70;;
1328;SDS011;658;48.820;9.354;2022-11-14T11:05:59;4.17;;;3.87;;
1328;SDS011;658;48.820;9.354;2022-11-14T11:10:00;4.67;;;3.90;;
1328;SDS011;658;48.820;9.354;2022-11-14T11:14:19;4.37;;;4.07;;
1328;SDS011;658;48.820;9.354;2022-11-14T11:18:33;4.27;;;3.87;;
1328;SDS011;658;48.820;9.354;2022-11-14T11:22:36;4.53;;;4.13;;
1328;SDS011;658;48.820;9.354;2022-11-14T11:26:37;3.80;;;3.57;;
1328;SDS011;658;48.820;9.354;2022-11-14T11:30:38;4.17;;;3.87;;
1328;SDS011;658;48.820;9.354;2022-11-14T11:34:39;4.07;;;3.77;;
1328;SDS011;658;48.820;9.354;2022-11-14T11:38:40;4.00;;;3.70;;
1328;SDS011;658;48.820;9.354;2022-11-14T11:42:52;4.10;;;3.80;;
1328;SDS011;658;48.820;9.354;2022-11-14T11:47:00;3.90;;;3.60;;
1328;SDS011;658;48.820;9.354;2022-11-14T11:51:03;4.90;;;4.40;;
1328;SDS011;658;48.820;9.354;2022-11-14T11:55:15;3.93;;;3.63;;
1328;SDS011;658;48.820;9.354;2022-11-14T11:59:42;3.80;;;3.50;;
1328;SDS011;658;48.820;9.354;2022-11-14T12:03:48;3.30;;;3.10;;
1328;SDS011;658;48.820;9.354;2022-11-14T12:07:58;4.17;;;3.87;;
1328;SDS011;658;48.820;9.354;2022-11-14T12:12:13;3.77;;;3.47;;
1328;SDS011;658;48.820;9.354;2022-11-14T12:29:54;3.57;;;3.30;;
1328;SDS011;658;48.820;9.354;2022-11-14T12:38:25;3.80;;;3.50;;
1328;SDS011;658;48.820;9.354;2022-11-14T12:42:33;3.00;;;2.80;;
1328;SDS011;658;48.820;9.354;2022-11-14T12:51:05;2.97;;;2.77;;
1328;SDS011;658;48.820;9.354;2022-11-14T13:04:19;2.70;;;2.30;;
1328;SDS011;658;48.820;9.354;2022-11-14T13:13:11;2.37;;;1.80;;
1328;SDS011;658;48.820;9.354;2022-11-14T13:17:30;3.07;;;2.00;;
1328;SDS011;658;48.820;9.354;2022-11-14T13:30:13;2.57;;;1.33;;
1328;SDS011;658;48.820;9.354;2022-11-14T13:38:45;1.93;;;1.80;;
1328;SDS011;658;48.820;9.354;2022-11-14T13:43:05;2.30;;;1.70;;
1328;SDS011;658;48.820;9.354;2022-11-14T13:51:24;2.50;;;1.50;;
1328;SDS011;658;48.820;9.354;2022-11-14T13:55:31;2.00;;;1.77;;
1328;SDS011;658;48.820;9.354;2022-11-14T14:09:06;2.10;;;1.90;;
1328;SDS011;658;48.820;9.354;2022-11-14T14:30:31;2.03;;;1.87;;
1328;SDS011;658;48.820;9.354;2022-11-14T14:34:32;1.90;;;1.70;;
1328;SDS011;658;48.820;9.354;2022-11-14T14:38:33;2.37;;;1.70;;
1328;SDS011;658;48.820;9.354;2022-11-14T14:42:37;1.67;;;1.50;;
1328;SDS011;658;48.820;9.354;2022-11-14T14:46:39;2.10;;;1.70;;
1328;SDS011;658;48.820;9.354;2022-11-14T14:55:18;1.57;;;1.47;;
1328;SDS011;658;48.820;9.354;2022-11-14T14:59:22;1.63;;;1.53;;
1328;SDS011;658;48.820;9.354;2022-11-14T15:03:25;1.40;;;1.30;;
1328;SDS011;658;48.820;9.354;2022-11-14T15:07:30;1.37;;;1.27;;
1328;SDS011;658;48.820;9.354;2022-11-14T15:11:31;2.10;;;1.90;;
1328;SDS011;658;48.820;9.354;2022-11-14T15:15:33;1.70;;;1.60;;
1328;SDS011;658;48.820;9.354;2022-11-14T15:19:41;1.90;;;1.80;;
1328;SDS011;658;48.820;9.354;2022-11-14T15:23:44;1.67;;;1.57;;
1328;SDS011;658;48.820;9.354;2022-11-14T15:27:46;1.47;;;1.30;;
1328;SDS011;658;48.820;9.354;2022-11-14T15:31:49;1.77;;;1.67;;
1328;SDS011;658;48.820;9.354;2022-11-14T15:36:14;2.20;;;1.73;;
1328;SDS011;658;48.820;9.354;2022-11-14T15:40:19;1.53;;;1.43;;
1328;SDS011;658;48.820;9.354;2022-11-14T15:44:30;2.00;;;1.80;;
1328;SDS011;658;48.820;9.354;2022-11-14T15:48:34;2.28;;;1.52;;
1328;SDS011;658;48.820;9.354;2022-11-14T15:52:45;2.77;;;2.30;;
1328;SDS011;658;48.820;9.354;2022-11-14T15:56:48;1.67;;;1.57;;
1328;SDS011;658;48.820;9.354;2022-11-14T16:00:50;2.10;;;1.53;;
1328;SDS011;658;48.820;9.354;2022-11-14T16:04:52;4.57;;;1.70;;
1328;SDS011;658;48.820;9.354;2022-11-14T16:08:54;2.90;;;1.63;;
1328;SDS011;658;48.820;9.354;2022-11-14T16:12:55;1.43;;;1.33;;
1328;SDS011;658;48.820;9.354;2022-11-14T16:16:56;2.90;;;1.60;;
1328;SDS011;658;48.820;9.354;2022-11-14T16:20:56;1.70;;;1.60;;
1328;SDS011;658;48.820;9.354;2022-11-14T16:24:59;1.83;;;1.40;;
1328;SDS011;658;48.820;9.354;2022-11-14T16:28:59;1.40;;;1.30;;
1328;SDS011;658;48.820;9.354;2022-11-14T16:33:00;1.43;;;1.30;;
1328;SDS011;658;48.820;9.354;2022-11-14T16:37:01;1.90;;;1.55;;
1328;SDS011;658;48.820;9.354;2022-11-14T16:41:04;1.57;;;1.47;;
1328;SDS011;658;48.820;9.354;2022-11-14T16:45:08;1.73;;;1.63;;
1328;SDS011;658;48.820;9.354;2022-11-14T16:49:11;2.40;;;1.60;;
1328;SDS011;658;48.820;9.354;2022-11-14T16:53:13;2.23;;;1.93;;
1328;SDS011;658;48.820;9.354;2022-11-14T16:57:14;1.33;;;1.23;;
1328;SDS011;658;48.820;9.354;2022-11-14T17:01:15;1.97;;;1.50;;
1328;SDS011;658;48.820;9.354;2022-11-14T17:05:15;3.10;;;1.73;;
1328;SDS011;658;48.820;9.354;2022-11-14T17:09:16;1.77;;;1.67;;
1328;SDS011;658;48.820;9.354;2022-11-14T17:13:16;2.10;;;1.47;;
1328;SDS011;658;48.820;9.354;2022-11-14T17:17:17;2.23;;;1.70;;
1328;SDS011;658;48.820;9.354;2022-11-14T17:21:18;1.50;;;1.30;;
1328;SDS011;658;48.820;9.354;2022-11-14T17:25:18;1.50;;;1.40;;
1328;SDS011;658;48.820;9.354;2022-11-14T17:29:19;2.10;;;1.40;;
1328;SDS011;658;48.820;9.354;2022-11-14T17:33:20;1.57;;;1.47;;
1328;SDS011;658;48.820;9.354;2022-11-14T17:37:20;1.63;;;1.40;;
1328;SDS011;658;48.820;9.354;2022-11-14T17:41:21;1.37;;;1.27;;
1328;SDS011;658;48.820;9.354;2022-11-14T17:45:22;1.43;;;1.30;;
1328;SDS011;658;48.820;9.354;2022-11-14T17:49:23;2.20;;;1.87;;
1328;SDS011;658;48.820;9.354;2022-11-14T17:53:24;1.67;;;1.57;;
1328;SDS011;658;48.820;9.354;2022-11-14T17:57:25;1.80;;;1.70;;
1328;SDS011;658;48.820;9.354;2022-11-14T18:01:25;1.60;;;1.50;;
1328;SDS011;658;48.820;9.354;2022-11-14T18:05:27;1.63;;;1.53;;
1328;SDS011;658;48.820;9.354;2022-11-14T18:09:28;1.43;;;1.30;;
1328;SDS011;658;48.820;9.354;2022-11-14T18:13:28;3.30;;;1.60;;
1328;SDS011;658;48.820;9.354;2022-11-14T18:17:29;1.60;;;1.50;;
1328;SDS011;658;48.820;9.354;2022-11-14T18:21:30;1.50;;;1.40;;
1328;SDS011;658;48.820;9.354;2022-11-14T18:25:31;1.50;;;1.40;;
1328;SDS011;658;48.820;9.354;2022-11-14T18:29:32;1.50;;;1.40;;
1328;SDS011;658;48.820;9.354;2022-11-14T18:33:32;1.60;;;1.50;;
1328;SDS011;658;48.820;9.354;2022-11-14T18:37:34;1.40;;;1.30;;
1328;SDS011;658;48.820;9.354;2022-11-14T18:41:35;1.40;;;1.30;;
1328;SDS011;658;48.820;9.354;2022-11-14T18:45:36;2.00;;;1.60;;
1328;SDS011;658;48.820;9.354;2022-11-14T18:49:36;1.80;;;1.70;;
1328;SDS011;658;48.820;9.354;2022-11-14T18:53:37;1.60;;;1.50;;
1328;SDS011;658;48.820;9.354;2022-11-14T18:57:38;1.80;;;1.70;;
1328;SDS011;658;48.820;9.354;2022-11-14T19:01:39;1.50;;;1.40;;
1328;SDS011;658;48.820;9.354;2022-11-14T19:05:40;1.67;;;1.57;;
1328;SDS011;658;48.820;9.354;2022-11-14T19:09:41;1.70;;;1.60;;
1328;SDS011;658;48.820;9.354;2022-11-14T19:13:43;1.83;;;1.73;;
1328;SDS011;658;48.820;9.354;2022-11-14T19:17:45;1.67;;;1.57;;
1328;SDS011;658;48.820;9.354;2022-11-14T19:21:47;1.87;;;1.67;;
1328;SDS011;658;48.820;9.354;2022-11-14T19:25:56;1.67;;;1.40;;
1328;SDS011;658;48.820;9.354;2022-11-14T19:30:00;1.63;;;1.53;;
1328;SDS011;658;48.820;9.354;2022-11-14T19:34:01;1.70;;;1.60;;
1328;SDS011;658;48.820;9.354;2022-11-14T19:38:02;2.20;;;1.67;;
1328;SDS011;658;48.820;9.354;2022-11-14T19:42:02;1.60;;;1.50;;
1328;SDS011;658;48.820;9.354;2022-11-14T19:46:04;2.17;;;1.97;;
1328;SDS011;658;48.820;9.354;2022-11-14T19:50:05;2.03;;;1.87;;
1328;SDS011;658;48.820;9.354;2022-11-14T19:54:07;1.70;;;1.57;;
1328;SDS011;658;48.820;9.354;2022-11-14T19:58:08;1.93;;;1.73;;
1328;SDS011;658;48.820;9.354;2022-11-14T20:02:12;1.70;;;1.60;;
1328;SDS011;658;48.820;9.354;2022-11-14T20:06:14;2.07;;;1.97;;
1328;SDS011;658;48.820;9.354;2022-11-14T20:10:18;2.00;;;1.90;;
1328;SDS011;658;48.820;9.354;2022-11-14T20:14:19;1.60;;;1.50;;
1328;SDS011;658;48.820;9.354;2022-11-14T20:18:20;1.67;;;1.57;;
1328;SDS011;658;48.820;9.354;2022-11-14T20:22:21;1.90;;;1.80;;
1328;SDS011;658;48.820;9.354;2022-11-14T20:26:22;1.80;;;1.70;;
1328;SDS011;658;48.820;9.354;2022-11-14T20:30:23;2.80;;;1.93;;
1328;SDS011;658;48.820;9.354;2022-11-14T20:34:24;4.37;;;1.87;;
1328;SDS011;658;48.820;9.354;2022-11-14T20:38:24;2.80;;;2.00;;
1328;SDS011;658;48.820;9.354;2022-11-14T20:42:27;2.03;;;1.90;;
1328;SDS011;658;48.820;9.354;2022-11-14T20:46:27;1.90;;;1.80;;
1328;SDS011;658;48.820;9.354;2022-11-14T20:50:28;2.10;;;1.90;;
1328;SDS011;658;48.820;9.354;2022-11-14T20:54:29;2.20;;;2.10;;
1328;SDS011;658;48.820;9.354;2022-11-14T20:58:30;2.50;;;2.10;;
1328;SDS011;658;48.820;9.354;2022-11-14T21:02:31;2.00;;;1.90;;
1328;SDS011;658;48.820;9.354;2022-11-14T21:06:32;1.80;;;1.70;;
1328;SDS011;658;48.820;9.354;2022-11-14T21:10:40;2.23;;;2.13;;
1328;SDS011;658;48.820;9.354;2022-11-14T21:14:44;1.90;;;1.80;;
1328;SDS011;658;48.820;9.354;2022-11-14T21:18:45;1.80;;;1.70;;
1328;SDS011;658;48.820;9.354;2022-11-14T21:22:46;1.90;;;1.77;;
1328;SDS011;658;48.820;9.354;2022-11-14T21:26:47;2.10;;;2.00;;
1328;SDS011;658;48.820;9.354;2022-11-14T21:30:47;2.30;;;2.20;;
1328;SDS011;658;48.820;9.354;2022-11-14T21:34:48;2.03;;;1.90;;
1328;SDS011;658;48.820;9.354;2022-11-14T21:38:48;2.47;;;2.27;;
1328;SDS011;658;48.820;9.354;2022-11-14T21:42:50;2.40;;;2.30;;
1328;SDS011;658;48.820;9.354;2022-11-14T21:46:50;2.40;;;2.00;;
1328;SDS011;658;48.820;9.354;2022-11-14T21:50:52;2.60;;;1.97;;
1328;SDS011;658;48.820;9.354;2022-11-14T21:54:53;2.03;;;1.93;;
1328;SDS011;658;48.820;9.354;2022-11-14T21:58:53;2.20;;;1.97;;
1328;SDS011;658;48.820;9.354;2022-11-14T22:03:14;2.20;;;2.10;;
1328;SDS011;658;48.820;9.354;2022-11-14T22:07:34;2.27;;;2.17;;
1328;SDS011;658;48.820;9.354;2022-11-14T22:11:39;2.10;;;2.00;;
1328;SDS011;658;48.820;9.354;2022-11-14T22:15:40;2.30;;;2.10;;
1328;SDS011;658;48.820;9.354;2022-11-14T22:19:41;2.47;;;2.30;;
1328;SDS011;658;48.820;9.354;2022-11-14T22:23:41;2.03;;;1.90;;
1328;SDS011;658;48.820;9.354;2022-11-14T22:27:43;2.00;;;1.90;;
1328;SDS011;658;48.820;9.354;2022-11-14T22:31:43;2.73;;;2.53;;
1328;SDS011;658;48.820;9.354;2022-11-14T22:35:44;3.50;;;2.57;;
1328;SDS011;658;48.820;9.354;2022-11-14T22:39:45;2.23;;;2.03;;
1328;SDS011;658;48.820;9.354;2022-11-14T22:43:45;2.13;;;2.03;;
1328;SDS011;658;48.820;9.354;2022-11-14T22:47:46;2.70;;;2.50;;
1328;SDS011;658;48.820;9.354;2022-11-14T22:51:47;2.33;;;2.13;;
1328;SDS011;658;48.820;9.354;2022-11-14T22:55:47;3.90;;;2.47;;
1328;SDS011;658;48.820;9.354;2022-11-14T22:59:48;2.70;;;2.50;;
1328;SDS011;658;48.820;9.354;2022-11-14T23:03:55;1.97;;;1.87;;
1328;SDS011;658;48.820;9.354;2022-11-14T23:07:58;2.30;;;2.10;;
1328;SDS011;658;48.820;9.354;2022-11-14T23:11:58;2.27;;;2.07;;
1328;SDS011;658;48.820;9.354;2022-11-14T23:15:59;2.80;;;2.60;;
1328;SDS011;658;48.820;9.354;2022-11-14T23:20:00;2.67;;;2.47;;
1328;SDS011;658;48.820;9.354;2022-11-14T23:24:02;2.50;;;2.30;;
1328;SDS011;658;48.820;9.354;2022-11-14T23:28:04;2.27;;;2.17;;
1328;SDS011;658;48.820;9.354;2022-11-14T23:32:05;2.67;;;2.40;;
1328;SDS011;658;48.820;9.354;2022-11-14T23:36:06;3.00;;;2.80;;
1328;SDS011;658;48.820;9.354;2022-11-14T23:40:06;2.63;;;2.43;;
1328;SDS011;658;48.820;9.354;2022-11-14T23:44:07;2.53;;;2.33;;
1328;SDS011;658;48.820;9.354;2022-11-14T23:48:08;2.83;;;2.67;;
1328;SDS011;658;48.820;9.354;2022-11-14T23:52:09;2.87;;;2.40;;
1328;SDS011;658;48.820;9.354;2022-11-14T23:56:10;3.00;;;2.80;;
